createdAt,value
2023-06-15T00:04:21.820Z,4.7
2023-06-15T00:09:21.758Z,4.8
2023-06-15T00:14:21.750Z,5
2023-06-15T00:19:22.773Z,4.9
2023-06-15T00:24:21.842Z,4.9
2023-06-15T00:29:21.891Z,5.1
2023-06-15T00:34:21.793Z,5.2
2023-06-15T00:39:21.794Z,5.2
2023-06-15T00:44:21.777Z,5.3
2023-06-15T00:49:21.780Z,5.5
2023-06-15T00:54:21.768Z,5.6
2023-06-15T00:59:21.816Z,5.6
2023-06-15T01:04:21.779Z,5.7
2023-06-15T01:09:21.789Z,5.7
2023-06-15T01:14:21.979Z,5.9
2023-06-15T01:19:21.830Z,6
2023-06-15T01:24:21.819Z,6
2023-06-15T01:29:21.804Z,6.1
2023-06-15T01:34:21.799Z,6.1
2023-06-15T01:39:21.795Z,6.1
2023-06-15T01:44:21.798Z,6.4
2023-06-15T01:49:21.819Z,6.5
2023-06-15T01:54:21.813Z,6.6
2023-06-15T01:59:21.770Z,6.7
2023-06-15T02:04:21.803Z,7
2023-06-15T02:09:21.829Z,7.1
2023-06-15T02:14:21.816Z,7.3
2023-06-15T02:19:21.825Z,7.4
2023-06-15T02:24:21.822Z,7.5
2023-06-15T02:29:21.782Z,7.7
2023-06-15T02:34:21.854Z,7.7
2023-06-15T02:39:21.762Z,7.8
2023-06-15T02:44:21.837Z,7.9
2023-06-15T02:49:21.740Z,7.9
2023-06-15T02:54:21.778Z,7.9
2023-06-15T02:59:21.822Z,7.8
2023-06-15T03:04:21.805Z,7.9
2023-06-15T03:09:21.789Z,8.1
2023-06-15T03:14:21.839Z,8.4
2023-06-15T03:19:21.820Z,8.3
2023-06-15T03:24:21.820Z,8.5
2023-06-15T03:29:21.835Z,8.9
2023-06-15T03:34:21.807Z,8.9
2023-06-15T03:39:21.792Z,8.9
2023-06-15T03:44:21.813Z,8.9
2023-06-15T03:49:21.818Z,10
2023-06-15T03:54:21.829Z,10
2023-06-15T03:59:21.803Z,10
2023-06-15T04:04:21.926Z,10.3
2023-06-15T04:09:21.771Z,10
2023-06-15T04:14:21.827Z,10
2023-06-15T04:19:21.813Z,10
2023-06-15T04:24:21.935Z,10.1
2023-06-15T04:29:21.838Z,10.1
2023-06-15T04:34:21.818Z,10.3
2023-06-15T04:39:21.789Z,10.3
2023-06-15T04:44:21.815Z,10.4
2023-06-15T04:49:21.792Z,10.4
2023-06-15T04:54:21.824Z,10.4
2023-06-15T04:59:21.843Z,10.1
2023-06-15T05:04:21.788Z,10.7
2023-06-15T05:09:21.841Z,10.7
2023-06-15T05:14:21.844Z,10.7
2023-06-15T05:19:21.835Z,9.6
2023-06-15T05:24:21.805Z,10
2023-06-15T05:29:21.947Z,10
2023-06-15T05:34:21.830Z,10
2023-06-15T05:39:21.844Z,9.8
2023-06-15T05:44:21.833Z,9.7
2023-06-15T05:49:21.834Z,9.7
2023-06-15T05:54:21.828Z,9.8
2023-06-15T05:59:33.070Z,9.8
2023-06-15T06:04:21.864Z,10.1
2023-06-15T06:09:21.859Z,10.1
2023-06-15T06:14:21.938Z,10.1
2023-06-15T06:19:21.869Z,10.1
2023-06-15T06:24:24.903Z,9.8
2023-06-15T06:29:21.808Z,9.8
2023-06-15T06:34:21.825Z,9.6
2023-06-15T06:39:21.907Z,9.3
2023-06-15T06:44:21.928Z,8.6
2023-06-15T06:49:21.801Z,8.6
2023-06-15T06:54:21.841Z,7.9
2023-06-15T06:59:42.243Z,7.6
2023-06-15T07:04:21.800Z,7.3
2023-06-15T07:09:21.819Z,7.2
2023-06-15T07:14:21.857Z,7.1
2023-06-15T07:19:21.835Z,6.4
2023-06-15T07:24:21.908Z,6.3
2023-06-15T07:29:21.872Z,6.1
2023-06-15T07:34:21.913Z,5.9
2023-06-15T07:39:21.896Z,5.7
2023-06-15T07:44:21.857Z,5.7
2023-06-15T07:49:41.069Z,5.6
2023-06-15T07:54:21.883Z,5.4
2023-06-15T07:59:21.825Z,5.1
2023-06-15T08:04:21.867Z,5.4
2023-06-15T08:09:21.878Z,5.6
2023-06-15T08:14:21.883Z,5.6
2023-06-15T08:19:21.863Z,5.4
2023-06-15T08:24:21.878Z,5.4
2023-06-15T08:29:25.897Z,5.4
2023-06-15T08:34:21.826Z,5.4
2023-06-15T08:39:21.890Z,5
2023-06-15T08:44:21.889Z,5
2023-06-15T08:49:21.915Z,4.5
2023-06-15T08:54:21.858Z,4.5
2023-06-15T08:59:21.900Z,4.5
2023-06-15T09:04:21.907Z,4.5
2023-06-15T09:09:21.923Z,4.4
2023-06-15T09:14:21.905Z,4.5
2023-06-15T09:19:21.854Z,4.5
2023-06-15T09:24:21.879Z,4.4
2023-06-15T09:29:21.889Z,4.4
2023-06-15T09:34:21.863Z,4.4
2023-06-15T09:39:21.891Z,4.4
2023-06-15T09:44:21.865Z,4.6
2023-06-15T09:49:21.844Z,4.5
2023-06-15T09:54:21.902Z,4.4
2023-06-15T09:59:21.881Z,4.5
2023-06-15T10:04:22.051Z,4.4
2023-06-15T10:09:21.891Z,4.5
2023-06-15T10:14:22.350Z,4.5
2023-06-15T10:19:21.924Z,4.4
2023-06-15T10:24:22.935Z,4.2
2023-06-15T10:29:21.919Z,4.2
2023-06-15T10:34:21.953Z,3.9
2023-06-15T10:39:21.871Z,3.9
2023-06-15T10:44:25.904Z,3.7
2023-06-15T10:49:21.867Z,3.7
2023-06-15T10:54:21.916Z,3.7
2023-06-15T10:59:21.909Z,3.7
2023-06-15T11:04:21.954Z,4.1
2023-06-15T11:09:21.916Z,3.8
2023-06-15T11:14:21.953Z,4.1
2023-06-15T11:19:22.002Z,3.85
2023-06-15T11:24:22.606Z,3.7
2023-06-15T11:29:21.919Z,3.7
2023-06-15T11:34:21.888Z,3.7
2023-06-15T11:39:21.976Z,3.7
2023-06-15T11:44:22.004Z,3.7
2023-06-15T11:49:21.930Z,3.6
2023-06-15T11:54:23.464Z,3.1
2023-06-15T11:59:21.938Z,3.1
2023-06-15T12:04:23.224Z,3
2023-06-15T12:09:21.900Z,2.9
2023-06-15T12:14:21.954Z,2.8
2023-06-15T12:19:21.970Z,2.8
2023-06-15T12:24:21.978Z,2.6
2023-06-15T12:29:21.995Z,2.6
2023-06-15T12:34:22.183Z,2.8
2023-06-15T12:39:21.924Z,2.8
2023-06-15T12:44:21.921Z,2.9
2023-06-15T12:49:21.903Z,2.9
2023-06-15T12:54:21.972Z,2.9
2023-06-15T12:59:21.908Z,2.9
2023-06-15T13:04:22.037Z,2.7
2023-06-15T13:09:21.959Z,2.5
2023-06-15T13:14:21.947Z,2.5
2023-06-15T13:19:21.944Z,2.3
2023-06-15T13:24:21.957Z,2.3
2023-06-15T13:29:21.904Z,2.5
2023-06-15T13:34:21.928Z,2.5
2023-06-15T13:39:21.939Z,2.5
2023-06-15T13:44:21.917Z,2.5
2023-06-15T13:49:22.193Z,2.5
2023-06-15T13:54:21.987Z,2.7
2023-06-15T13:59:21.991Z,2.8
2023-06-15T14:04:22.019Z,2.9
2023-06-15T14:09:22.009Z,3
2023-06-15T14:14:22.013Z,3
2023-06-15T14:19:22.026Z,3
2023-06-15T14:24:22.087Z,3.1
2023-06-15T14:29:22.004Z,3.2
2023-06-15T14:34:21.947Z,3.2
2023-06-15T14:39:22.050Z,3.2
2023-06-15T14:44:21.976Z,3.3
2023-06-15T14:49:21.973Z,3.4
2023-06-15T14:59:22.006Z,3.4
2023-06-15T15:04:22.063Z,3.4
2023-06-15T15:09:22.015Z,3.4
2023-06-15T15:14:21.968Z,3.5
2023-06-15T15:19:24.986Z,3.5
2023-06-15T15:24:21.938Z,3.4
2023-06-15T15:29:21.968Z,3.4
2023-06-15T15:34:21.971Z,3.4
2023-06-15T15:39:21.970Z,3.5
2023-06-15T15:44:21.980Z,3.4
2023-06-15T15:49:21.933Z,3.2
2023-06-15T15:54:22.019Z,3.1
2023-06-15T15:59:22.015Z,3.1
2023-06-15T16:04:22.023Z,3.1
2023-06-15T16:09:21.951Z,3
2023-06-15T16:14:21.976Z,3
2023-06-15T16:19:22.368Z,3.1
2023-06-15T16:24:21.984Z,3.1
2023-06-15T16:29:21.984Z,3.1
2023-06-15T16:34:22.012Z,3.1
2023-06-15T16:39:21.976Z,3
2023-06-15T16:44:22.003Z,3
2023-06-15T16:49:22.005Z,3
2023-06-15T16:54:22.021Z,3
2023-06-15T16:59:22.013Z,2.9
2023-06-15T17:04:22.014Z,2.9
2023-06-15T17:09:21.981Z,2.9
2023-06-15T17:14:21.995Z,2.8
2023-06-15T17:19:22.022Z,2.8
2023-06-15T17:24:22.002Z,2.8
2023-06-15T17:29:21.998Z,2.8
2023-06-15T17:34:22.006Z,3
2023-06-15T17:39:22.049Z,2.8
2023-06-15T17:44:22.107Z,2.8
2023-06-15T17:49:21.996Z,2.9
2023-06-15T17:54:22.045Z,3
2023-06-15T17:59:22.020Z,3
2023-06-15T18:04:21.988Z,3.2
2023-06-15T18:09:22.079Z,3
2023-06-15T18:14:22.061Z,3
2023-06-15T18:19:22.013Z,3.2
2023-06-15T18:24:22.041Z,3.2
2023-06-15T18:29:22.063Z,3.2
2023-06-15T18:34:22.059Z,3.3
2023-06-15T18:39:22.205Z,3.1
2023-06-15T18:44:22.053Z,3.3
2023-06-15T18:49:22.039Z,3.3
2023-06-15T18:54:22.023Z,3.2
2023-06-15T18:59:22.035Z,3.2
2023-06-15T19:04:22.002Z,3.1
2023-06-15T19:14:22.019Z,3
2023-06-15T19:19:22.053Z,3
2023-06-15T19:24:22.053Z,3
2023-06-15T19:29:22.045Z,3
2023-06-15T19:34:22.023Z,3.1
2023-06-15T19:39:22.037Z,3.3
2023-06-15T19:44:22.024Z,3.6
2023-06-15T19:49:22.056Z,4.5
2023-06-15T19:54:22.013Z,4.5
2023-06-15T19:59:22.072Z,4.6
2023-06-15T20:04:22.020Z,4.6
2023-06-15T20:09:22.051Z,4.5
2023-06-15T20:14:22.064Z,4.5
2023-06-15T20:19:22.071Z,4.5
2023-06-15T20:24:22.123Z,4.6
2023-06-15T20:29:22.059Z,5.5
2023-06-15T20:34:22.054Z,5.5
2023-06-15T20:39:22.046Z,5.5
2023-06-15T20:44:22.040Z,5.5
2023-06-15T20:49:22.112Z,5.5
2023-06-15T20:54:22.057Z,4.6
2023-06-15T20:59:22.083Z,4.6
2023-06-15T21:04:22.065Z,4.5
2023-06-15T21:09:22.072Z,4.5
2023-06-15T21:14:22.092Z,4.5
2023-06-15T21:19:22.105Z,4.6
2023-06-15T21:24:22.113Z,4.6
2023-06-15T21:29:22.089Z,4.6
2023-06-15T21:34:22.056Z,4.6
2023-06-15T21:39:22.091Z,4.6
2023-06-15T21:44:22.067Z,4.7
2023-06-15T21:49:22.086Z,4.8
2023-06-15T21:54:22.094Z,4.8
2023-06-15T21:59:22.130Z,5
2023-06-15T22:04:22.055Z,5
2023-06-15T22:09:22.069Z,5
2023-06-15T22:14:22.031Z,5
2023-06-15T22:19:22.061Z,4.9
2023-06-15T22:24:22.102Z,4.8
2023-06-15T22:29:22.052Z,4.8
2023-06-15T22:34:22.192Z,4.8
2023-06-15T22:39:22.082Z,4.9
2023-06-15T22:44:22.077Z,4.9
2023-06-15T22:49:22.079Z,5
2023-06-15T22:54:22.101Z,5
2023-06-15T22:59:22.128Z,5.1
2023-06-15T23:04:22.123Z,5.1
2023-06-15T23:09:22.160Z,5.1
2023-06-15T23:14:22.133Z,5.1
2023-06-15T23:19:22.125Z,5.1
2023-06-15T23:24:22.210Z,5.1
2023-06-15T23:29:22.123Z,5.1
2023-06-15T23:34:22.313Z,5.1
2023-06-15T23:39:22.132Z,5.3
2023-06-15T23:44:22.548Z,5.9
2023-06-15T23:49:22.136Z,6.2
2023-06-15T23:54:22.141Z,6.3
2023-06-15T23:59:22.148Z,6.4
